sensor_id;sensor_type;location;lat;lon;timestamp;P1;durP1;ratioP1;P2;durP2;ratioP2
57409;SDS011;46044;44.738;20.394;2022-08-02T00:01:33;5.53;;;2.50;;
57409;SDS011;46044;44.738;20.394;2022-08-02T00:03:59;4.93;;;2.63;;
57409;SDS011;46044;44.738;20.394;2022-08-02T00:06:25;3.00;;;2.40;;
57409;SDS011;46044;44.738;20.394;2022-08-02T00:08:50;4.22;;;2.25;;
57409;SDS011;46044;44.738;20.394;2022-08-02T00:11:17;6.00;;;2.30;;
57409;SDS011;46044;44.738;20.394;2022-08-02T00:13:43;4.68;;;2.22;;
57409;SDS011;46044;44.738;20.394;2022-08-02T00:16:09;4.50;;;2.72;;
57409;SDS011;46044;44.738;20.394;2022-08-02T00:18:35;5.45;;;2.65;;
57409;SDS011;46044;44.738;20.394;2022-08-02T00:21:01;4.57;;;2.22;;
57409;SDS011;46044;44.738;20.394;2022-08-02T00:23:26;3.63;;;2.50;;
57409;SDS011;46044;44.738;20.394;2022-08-02T00:25:52;8.98;;;2.72;;
57409;SDS011;46044;44.738;20.394;2022-08-02T00:28:18;6.70;;;3.03;;
57409;SDS011;46044;44.738;20.394;2022-08-02T00:30:44;6.55;;;2.33;;
57409;SDS011;46044;44.738;20.394;2022-08-02T00:33:09;3.75;;;2.55;;
57409;SDS011;46044;44.738;20.394;2022-08-02T00:35:35;4.68;;;2.40;;
57409;SDS011;46044;44.738;20.394;2022-08-02T00:38:04;4.63;;;2.33;;
57409;SDS011;46044;44.738;20.394;2022-08-02T00:40:29;4.15;;;2.50;;
57409;SDS011;46044;44.738;20.394;2022-08-02T00:45:32;5.13;;;2.40;;
57409;SDS011;46044;44.738;20.394;2022-08-02T00:48:00;5.82;;;2.45;;
57409;SDS011;46044;44.738;20.394;2022-08-02T00:50:26;8.70;;;2.50;;
57409;SDS011;46044;44.738;20.394;2022-08-02T00:52:52;19.35;;;2.97;;
57409;SDS011;46044;44.738;20.394;2022-08-02T00:55:18;18.98;;;3.10;;
57409;SDS011;46044;44.738;20.394;2022-08-02T00:57:44;37.78;;;4.10;;
57409;SDS011;46044;44.738;20.394;2022-08-02T01:00:10;21.63;;;3.65;;
57409;SDS011;46044;44.738;20.394;2022-08-02T01:02:36;7.55;;;3.25;;
57409;SDS011;46044;44.738;20.394;2022-08-02T01:05:02;8.25;;;2.88;;
57409;SDS011;46044;44.738;20.394;2022-08-02T01:07:29;5.18;;;2.78;;
57409;SDS011;46044;44.738;20.394;2022-08-02T01:09:55;5.32;;;2.58;;
57409;SDS011;46044;44.738;20.394;2022-08-02T01:12:21;3.95;;;2.80;;
57409;SDS011;46044;44.738;20.394;2022-08-02T01:14:48;5.93;;;2.95;;
57409;SDS011;46044;44.738;20.394;2022-08-02T01:17:17;4.13;;;2.90;;
57409;SDS011;46044;44.738;20.394;2022-08-02T01:31:01;8.90;;;3.13;;
57409;SDS011;46044;44.738;20.394;2022-08-02T01:34:00;7.75;;;2.70;;
57409;SDS011;46044;44.738;20.394;2022-08-02T01:36:46;4.63;;;2.80;;
57409;SDS011;46044;44.738;20.394;2022-08-02T01:39:16;7.20;;;2.88;;
57409;SDS011;46044;44.738;20.394;2022-08-02T01:41:47;3.63;;;2.67;;
57409;SDS011;46044;44.738;20.394;2022-08-02T01:44:14;4.22;;;2.45;;
57409;SDS011;46044;44.738;20.394;2022-08-02T01:46:42;5.53;;;2.70;;
57409;SDS011;46044;44.738;20.394;2022-08-02T01:49:11;7.97;;;3.00;;
57409;SDS011;46044;44.738;20.394;2022-08-02T01:51:41;6.95;;;3.35;;
57409;SDS011;46044;44.738;20.394;2022-08-02T01:54:28;3.22;;;2.83;;
57409;SDS011;46044;44.738;20.394;2022-08-02T01:56:56;9.70;;;2.97;;
57409;SDS011;46044;44.738;20.394;2022-08-02T01:59:25;4.53;;;3.42;;
57409;SDS011;46044;44.738;20.394;2022-08-02T02:01:53;5.43;;;3.10;;
57409;SDS011;46044;44.738;20.394;2022-08-02T02:04:22;10.15;;;3.55;;
57409;SDS011;46044;44.738;20.394;2022-08-02T02:06:50;8.07;;;3.40;;
57409;SDS011;46044;44.738;20.394;2022-08-02T02:09:18;4.50;;;3.45;;
57409;SDS011;46044;44.738;20.394;2022-08-02T02:11:45;9.27;;;3.45;;
57409;SDS011;46044;44.738;20.394;2022-08-02T02:14:12;5.13;;;3.42;;
57409;SDS011;46044;44.738;20.394;2022-08-02T02:16:41;6.47;;;3.00;;
57409;SDS011;46044;44.738;20.394;2022-08-02T02:19:09;5.72;;;3.10;;
57409;SDS011;46044;44.738;20.394;2022-08-02T02:21:36;5.55;;;4.03;;
57409;SDS011;46044;44.738;20.394;2022-08-02T02:24:02;4.65;;;3.47;;
57409;SDS011;46044;44.738;20.394;2022-08-02T02:26:28;8.50;;;3.78;;
57409;SDS011;46044;44.738;20.394;2022-08-02T02:28:56;5.53;;;3.38;;
57409;SDS011;46044;44.738;20.394;2022-08-02T02:31:26;5.93;;;3.45;;
57409;SDS011;46044;44.738;20.394;2022-08-02T02:34:04;5.60;;;3.35;;
57409;SDS011;46044;44.738;20.394;2022-08-02T02:36:41;7.53;;;4.00;;
57409;SDS011;46044;44.738;20.394;2022-08-02T02:39:12;5.35;;;3.38;;
57409;SDS011;46044;44.738;20.394;2022-08-02T02:41:40;4.80;;;3.35;;
57409;SDS011;46044;44.738;20.394;2022-08-02T02:44:08;4.50;;;3.42;;
57409;SDS011;46044;44.738;20.394;2022-08-02T02:46:38;8.88;;;3.50;;
57409;SDS011;46044;44.738;20.394;2022-08-02T02:49:06;8.32;;;3.70;;
57409;SDS011;46044;44.738;20.394;2022-08-02T02:51:34;6.60;;;4.07;;
57409;SDS011;46044;44.738;20.394;2022-08-02T02:54:00;5.40;;;3.45;;
57409;SDS011;46044;44.738;20.394;2022-08-02T02:56:26;6.15;;;3.70;;
57409;SDS011;46044;44.738;20.394;2022-08-02T02:58:53;9.10;;;4.22;;
57409;SDS011;46044;44.738;20.394;2022-08-02T03:01:19;3.97;;;3.05;;
57409;SDS011;46044;44.738;20.394;2022-08-02T03:03:52;6.43;;;3.30;;
57409;SDS011;46044;44.738;20.394;2022-08-02T03:06:20;4.95;;;3.20;;
57409;SDS011;46044;44.738;20.394;2022-08-02T03:08:45;5.05;;;3.40;;
57409;SDS011;46044;44.738;20.394;2022-08-02T03:11:11;5.00;;;3.35;;
57409;SDS011;46044;44.738;20.394;2022-08-02T03:13:38;4.15;;;3.08;;
57409;SDS011;46044;44.738;20.394;2022-08-02T03:16:04;4.68;;;3.42;;
57409;SDS011;46044;44.738;20.394;2022-08-02T03:18:34;5.90;;;3.38;;
57409;SDS011;46044;44.738;20.394;2022-08-02T03:21:05;6.07;;;2.92;;
57409;SDS011;46044;44.738;20.394;2022-08-02T03:23:33;6.03;;;3.72;;
57409;SDS011;46044;44.738;20.394;2022-08-02T03:26:00;3.58;;;2.92;;
57409;SDS011;46044;44.738;20.394;2022-08-02T03:28:26;4.78;;;3.05;;
57409;SDS011;46044;44.738;20.394;2022-08-02T03:30:52;4.97;;;2.63;;
57409;SDS011;46044;44.738;20.394;2022-08-02T03:33:18;3.95;;;3.03;;
57409;SDS011;46044;44.738;20.394;2022-08-02T03:35:46;6.00;;;3.33;;
57409;SDS011;46044;44.738;20.394;2022-08-02T03:38:13;4.55;;;3.40;;
57409;SDS011;46044;44.738;20.394;2022-08-02T03:40:41;7.40;;;3.85;;
57409;SDS011;46044;44.738;20.394;2022-08-02T03:43:08;6.75;;;3.10;;
57409;SDS011;46044;44.738;20.394;2022-08-02T03:45:35;4.03;;;3.10;;
57409;SDS011;46044;44.738;20.394;2022-08-02T03:48:05;4.10;;;3.25;;
57409;SDS011;46044;44.738;20.394;2022-08-02T03:50:32;5.50;;;3.10;;
57409;SDS011;46044;44.738;20.394;2022-08-02T03:53:00;7.20;;;3.40;;
57409;SDS011;46044;44.738;20.394;2022-08-02T03:55:26;6.00;;;3.47;;
57409;SDS011;46044;44.738;20.394;2022-08-02T03:57:52;5.18;;;3.60;;
57409;SDS011;46044;44.738;20.394;2022-08-02T04:00:18;4.22;;;3.80;;
57409;SDS011;46044;44.738;20.394;2022-08-02T04:02:45;5.05;;;3.90;;
57409;SDS011;46044;44.738;20.394;2022-08-02T04:05:12;8.20;;;3.67;;
57409;SDS011;46044;44.738;20.394;2022-08-02T04:07:38;5.70;;;3.30;;
57409;SDS011;46044;44.738;20.394;2022-08-02T04:10:04;3.72;;;3.10;;
57409;SDS011;46044;44.738;20.394;2022-08-02T04:12:30;6.70;;;2.88;;
57409;SDS011;46044;44.738;20.394;2022-08-02T04:14:56;4.65;;;2.67;;
57409;SDS011;46044;44.738;20.394;2022-08-02T04:17:23;6.75;;;3.22;;
57409;SDS011;46044;44.738;20.394;2022-08-02T04:19:50;5.15;;;2.88;;
57409;SDS011;46044;44.738;20.394;2022-08-02T04:22:24;3.88;;;2.63;;
57409;SDS011;46044;44.738;20.394;2022-08-02T04:24:56;4.05;;;2.65;;
57409;SDS011;46044;44.738;20.394;2022-08-02T04:27:24;8.20;;;3.00;;
57409;SDS011;46044;44.738;20.394;2022-08-02T04:29:50;6.72;;;2.65;;
57409;SDS011;46044;44.738;20.394;2022-08-02T04:32:17;4.10;;;2.55;;
57409;SDS011;46044;44.738;20.394;2022-08-02T04:34:44;13.27;;;3.28;;
57409;SDS011;46044;44.738;20.394;2022-08-02T04:37:11;8.70;;;2.78;;
57409;SDS011;46044;44.738;20.394;2022-08-02T04:39:39;5.03;;;3.03;;
57409;SDS011;46044;44.738;20.394;2022-08-02T04:42:05;6.68;;;2.85;;
57409;SDS011;46044;44.738;20.394;2022-08-02T04:44:31;6.05;;;3.03;;
57409;SDS011;46044;44.738;20.394;2022-08-02T04:46:57;5.55;;;3.10;;
57409;SDS011;46044;44.738;20.394;2022-08-02T04:49:26;4.40;;;2.67;;
57409;SDS011;46044;44.738;20.394;2022-08-02T04:51:53;7.38;;;3.15;;
57409;SDS011;46044;44.738;20.394;2022-08-02T04:54:19;3.53;;;2.65;;
57409;SDS011;46044;44.738;20.394;2022-08-02T04:56:45;6.88;;;2.92;;
57409;SDS011;46044;44.738;20.394;2022-08-02T04:59:10;5.57;;;3.00;;
57409;SDS011;46044;44.738;20.394;2022-08-02T05:01:36;3.50;;;2.60;;
57409;SDS011;46044;44.738;20.394;2022-08-02T05:04:03;6.97;;;2.75;;
57409;SDS011;46044;44.738;20.394;2022-08-02T05:06:30;7.97;;;3.80;;
57409;SDS011;46044;44.738;20.394;2022-08-02T05:08:56;21.45;;;4.03;;
57409;SDS011;46044;44.738;20.394;2022-08-02T05:11:22;9.35;;;3.95;;
57409;SDS011;46044;44.738;20.394;2022-08-02T05:13:49;9.70;;;4.43;;
57409;SDS011;46044;44.738;20.394;2022-08-02T05:16:15;9.15;;;3.72;;
57409;SDS011;46044;44.738;20.394;2022-08-02T05:18:41;11.95;;;3.70;;
57409;SDS011;46044;44.738;20.394;2022-08-02T05:21:07;6.65;;;3.20;;
57409;SDS011;46044;44.738;20.394;2022-08-02T05:23:33;10.88;;;3.97;;
57409;SDS011;46044;44.738;20.394;2022-08-02T05:25:59;10.93;;;3.85;;
57409;SDS011;46044;44.738;20.394;2022-08-02T05:28:25;11.32;;;4.80;;
57409;SDS011;46044;44.738;20.394;2022-08-02T05:30:51;8.10;;;4.05;;
57409;SDS011;46044;44.738;20.394;2022-08-02T05:33:17;9.82;;;4.85;;
57409;SDS011;46044;44.738;20.394;2022-08-02T05:35:43;9.77;;;4.20;;
57409;SDS011;46044;44.738;20.394;2022-08-02T05:38:09;7.70;;;4.25;;
57409;SDS011;46044;44.738;20.394;2022-08-02T05:40:34;6.72;;;4.38;;
57409;SDS011;46044;44.738;20.394;2022-08-02T05:43:00;13.48;;;4.40;;
57409;SDS011;46044;44.738;20.394;2022-08-02T05:45:26;11.40;;;5.38;;
57409;SDS011;46044;44.738;20.394;2022-08-02T05:47:52;12.40;;;4.60;;
57409;SDS011;46044;44.738;20.394;2022-08-02T05:50:17;10.57;;;5.50;;
57409;SDS011;46044;44.738;20.394;2022-08-02T05:55:16;11.05;;;5.57;;
57409;SDS011;46044;44.738;20.394;2022-08-02T06:00:24;10.95;;;6.30;;
57409;SDS011;46044;44.738;20.394;2022-08-02T06:05:34;18.15;;;7.15;;
57409;SDS011;46044;44.738;20.394;2022-08-02T06:08:04;20.27;;;7.15;;
57409;SDS011;46044;44.738;20.394;2022-08-02T06:10:35;10.10;;;6.40;;
57409;SDS011;46044;44.738;20.394;2022-08-02T06:13:12;10.50;;;6.35;;
57409;SDS011;46044;44.738;20.394;2022-08-02T06:15:40;13.13;;;5.50;;
57409;SDS011;46044;44.738;20.394;2022-08-02T06:18:07;16.02;;;6.15;;
57409;SDS011;46044;44.738;20.394;2022-08-02T06:20:34;13.00;;;5.60;;
57409;SDS011;46044;44.738;20.394;2022-08-02T06:23:01;9.63;;;4.97;;
57409;SDS011;46044;44.738;20.394;2022-08-02T06:25:31;12.02;;;5.13;;
57409;SDS011;46044;44.738;20.394;2022-08-02T06:27:59;9.82;;;5.03;;
57409;SDS011;46044;44.738;20.394;2022-08-02T06:30:26;14.07;;;4.78;;
57409;SDS011;46044;44.738;20.394;2022-08-02T06:32:53;15.27;;;5.75;;
57409;SDS011;46044;44.738;20.394;2022-08-02T06:35:19;12.50;;;4.78;;
57409;SDS011;46044;44.738;20.394;2022-08-02T06:37:51;13.02;;;5.30;;
57409;SDS011;46044;44.738;20.394;2022-08-02T06:40:28;14.68;;;5.03;;
57409;SDS011;46044;44.738;20.394;2022-08-02T06:43:11;16.98;;;4.68;;
57409;SDS011;46044;44.738;20.394;2022-08-02T06:45:52;10.82;;;4.43;;
57409;SDS011;46044;44.738;20.394;2022-08-02T06:48:18;10.40;;;3.97;;
57409;SDS011;46044;44.738;20.394;2022-08-02T06:50:44;15.20;;;4.32;;
57409;SDS011;46044;44.738;20.394;2022-08-02T06:53:10;7.78;;;3.67;;
57409;SDS011;46044;44.738;20.394;2022-08-02T06:55:36;12.02;;;4.80;;
57409;SDS011;46044;44.738;20.394;2022-08-02T06:58:04;15.50;;;4.63;;
57409;SDS011;46044;44.738;20.394;2022-08-02T07:00:30;10.88;;;4.15;;
57409;SDS011;46044;44.738;20.394;2022-08-02T07:02:56;8.73;;;3.50;;
57409;SDS011;46044;44.738;20.394;2022-08-02T07:05:22;6.75;;;3.90;;
57409;SDS011;46044;44.738;20.394;2022-08-02T07:07:50;7.88;;;3.50;;
57409;SDS011;46044;44.738;20.394;2022-08-02T07:10:16;9.73;;;3.88;;
57409;SDS011;46044;44.738;20.394;2022-08-02T07:12:44;5.18;;;3.00;;
57409;SDS011;46044;44.738;20.394;2022-08-02T07:15:13;6.07;;;3.00;;
57409;SDS011;46044;44.738;20.394;2022-08-02T07:17:40;9.88;;;3.63;;
57409;SDS011;46044;44.738;20.394;2022-08-02T07:20:06;10.02;;;3.05;;
57409;SDS011;46044;44.738;20.394;2022-08-02T07:22:33;6.40;;;3.20;;
57409;SDS011;46044;44.738;20.394;2022-08-02T07:25:00;6.35;;;2.78;;
57409;SDS011;46044;44.738;20.394;2022-08-02T07:27:26;7.32;;;2.85;;
57409;SDS011;46044;44.738;20.394;2022-08-02T07:29:53;6.55;;;3.25;;
57409;SDS011;46044;44.738;20.394;2022-08-02T07:32:20;6.85;;;2.85;;
57409;SDS011;46044;44.738;20.394;2022-08-02T07:34:48;8.25;;;3.83;;
57409;SDS011;46044;44.738;20.394;2022-08-02T07:37:14;11.50;;;4.03;;
57409;SDS011;46044;44.738;20.394;2022-08-02T07:39:40;10.45;;;3.30;;
57409;SDS011;46044;44.738;20.394;2022-08-02T07:42:07;6.45;;;3.60;;
57409;SDS011;46044;44.738;20.394;2022-08-02T07:44:32;12.15;;;3.83;;
57409;SDS011;46044;44.738;20.394;2022-08-02T07:47:01;11.73;;;3.20;;
57409;SDS011;46044;44.738;20.394;2022-08-02T07:49:31;7.15;;;3.13;;
57409;SDS011;46044;44.738;20.394;2022-08-02T07:51:57;8.38;;;3.00;;
57409;SDS011;46044;44.738;20.394;2022-08-02T07:54:25;14.20;;;3.28;;
57409;SDS011;46044;44.738;20.394;2022-08-02T07:56:52;7.78;;;3.15;;
57409;SDS011;46044;44.738;20.394;2022-08-02T07:59:18;6.90;;;3.15;;
57409;SDS011;46044;44.738;20.394;2022-08-02T08:01:45;5.22;;;3.20;;
57409;SDS011;46044;44.738;20.394;2022-08-02T08:04:13;10.43;;;2.83;;
57409;SDS011;46044;44.738;20.394;2022-08-02T08:06:39;6.45;;;2.83;;
57409;SDS011;46044;44.738;20.394;2022-08-02T08:09:05;12.98;;;3.30;;
57409;SDS011;46044;44.738;20.394;2022-08-02T08:11:34;7.32;;;2.75;;
57409;SDS011;46044;44.738;20.394;2022-08-02T08:14:03;5.70;;;2.90;;
57409;SDS011;46044;44.738;20.394;2022-08-02T08:16:35;7.95;;;2.25;;
57409;SDS011;46044;44.738;20.394;2022-08-02T08:19:01;9.02;;;2.75;;
57409;SDS011;46044;44.738;20.394;2022-08-02T08:21:27;6.88;;;2.78;;
57409;SDS011;46044;44.738;20.394;2022-08-02T08:23:54;9.02;;;2.28;;
57409;SDS011;46044;44.738;20.394;2022-08-02T08:26:20;4.03;;;2.03;;
57409;SDS011;46044;44.738;20.394;2022-08-02T08:28:46;10.68;;;2.53;;
57409;SDS011;46044;44.738;20.394;2022-08-02T08:31:12;7.28;;;2.35;;
57409;SDS011;46044;44.738;20.394;2022-08-02T08:33:39;5.25;;;2.40;;
57409;SDS011;46044;44.738;20.394;2022-08-02T08:36:05;4.88;;;1.92;;
57409;SDS011;46044;44.738;20.394;2022-08-02T08:38:32;3.55;;;1.80;;
57409;SDS011;46044;44.738;20.394;2022-08-02T08:40:58;5.95;;;2.08;;
57409;SDS011;46044;44.738;20.394;2022-08-02T08:43:24;4.22;;;2.15;;
57409;SDS011;46044;44.738;20.394;2022-08-02T08:45:50;8.13;;;2.05;;
57409;SDS011;46044;44.738;20.394;2022-08-02T08:48:16;8.60;;;2.13;;
57409;SDS011;46044;44.738;20.394;2022-08-02T08:50:52;3.65;;;1.60;;
57409;SDS011;46044;44.738;20.394;2022-08-02T08:53:20;4.22;;;1.58;;
57409;SDS011;46044;44.738;20.394;2022-08-02T08:55:50;4.30;;;1.50;;
57409;SDS011;46044;44.738;20.394;2022-08-02T08:58:21;3.50;;;1.60;;
57409;SDS011;46044;44.738;20.394;2022-08-02T09:00:47;2.55;;;1.80;;
57409;SDS011;46044;44.738;20.394;2022-08-02T09:03:13;5.80;;;1.60;;
57409;SDS011;46044;44.738;20.394;2022-08-02T09:05:39;28.48;;;20.30;;
57409;SDS011;46044;44.738;20.394;2022-08-02T09:08:10;32.75;;;19.88;;
57409;SDS011;46044;44.738;20.394;2022-08-02T09:15:36;25.13;;;15.13;;
57409;SDS011;46044;44.738;20.394;2022-08-02T09:18:03;2.60;;;1.65;;
57409;SDS011;46044;44.738;20.394;2022-08-02T09:20:31;4.70;;;2.72;;
57409;SDS011;46044;44.738;20.394;2022-08-02T09:23:14;9.23;;;5.78;;
57409;SDS011;46044;44.738;20.394;2022-08-02T09:25:41;10.85;;;6.50;;
57409;SDS011;46044;44.738;20.394;2022-08-02T09:28:07;2.63;;;1.70;;
57409;SDS011;46044;44.738;20.394;2022-08-02T09:30:41;2.67;;;1.52;;
57409;SDS011;46044;44.738;20.394;2022-08-02T09:33:08;2.63;;;1.45;;
57409;SDS011;46044;44.738;20.394;2022-08-02T09:35:34;3.10;;;1.70;;
57409;SDS011;46044;44.738;20.394;2022-08-02T09:38:10;6.80;;;2.60;;
57409;SDS011;46044;44.738;20.394;2022-08-02T09:40:38;4.03;;;1.40;;
57409;SDS011;46044;44.738;20.394;2022-08-02T09:43:05;2.28;;;1.85;;
57409;SDS011;46044;44.738;20.394;2022-08-02T09:45:32;4.32;;;1.92;;
57409;SDS011;46044;44.738;20.394;2022-08-02T09:48:05;3.90;;;1.55;;
57409;SDS011;46044;44.738;20.394;2022-08-02T09:50:32;3.03;;;1.73;;
57409;SDS011;46044;44.738;20.394;2022-08-02T09:53:01;3.60;;;1.58;;
57409;SDS011;46044;44.738;20.394;2022-08-02T09:55:28;4.03;;;2.10;;
57409;SDS011;46044;44.738;20.394;2022-08-02T09:57:55;2.95;;;1.75;;
57409;SDS011;46044;44.738;20.394;2022-08-02T10:00:21;6.38;;;1.80;;
57409;SDS011;46044;44.738;20.394;2022-08-02T10:05:53;8.52;;;2.13;;
57409;SDS011;46044;44.738;20.394;2022-08-02T10:08:19;3.28;;;2.15;;
57409;SDS011;46044;44.738;20.394;2022-08-02T10:10:46;9.20;;;1.98;;
57409;SDS011;46044;44.738;20.394;2022-08-02T10:13:12;2.67;;;1.60;;
57409;SDS011;46044;44.738;20.394;2022-08-02T10:15:39;5.13;;;1.70;;
57409;SDS011;46044;44.738;20.394;2022-08-02T10:18:06;4.07;;;2.10;;
57409;SDS011;46044;44.738;20.394;2022-08-02T10:20:34;2.20;;;1.50;;
57409;SDS011;46044;44.738;20.394;2022-08-02T10:25:32;6.32;;;1.75;;
57409;SDS011;46044;44.738;20.394;2022-08-02T10:28:02;2.45;;;1.60;;
57409;SDS011;46044;44.738;20.394;2022-08-02T10:30:31;9.23;;;1.92;;
57409;SDS011;46044;44.738;20.394;2022-08-02T10:33:02;4.50;;;1.70;;
57409;SDS011;46044;44.738;20.394;2022-08-02T10:35:31;1.60;;;1.50;;
57409;SDS011;46044;44.738;20.394;2022-08-02T10:38:00;4.57;;;1.80;;
57409;SDS011;46044;44.738;20.394;2022-08-02T10:49:03;8.55;;;1.77;;
57409;SDS011;46044;44.738;20.394;2022-08-02T10:54:17;5.15;;;1.70;;
57409;SDS011;46044;44.738;20.394;2022-08-02T10:56:50;3.30;;;1.80;;
57409;SDS011;46044;44.738;20.394;2022-08-02T10:59:27;2.30;;;1.70;;
57409;SDS011;46044;44.738;20.394;2022-08-02T11:01:58;3.30;;;1.45;;
57409;SDS011;46044;44.738;20.394;2022-08-02T11:07:26;4.82;;;1.70;;
57409;SDS011;46044;44.738;20.394;2022-08-02T11:15:28;7.32;;;1.80;;
57409;SDS011;46044;44.738;20.394;2022-08-02T11:17:56;2.08;;;1.70;;
57409;SDS011;46044;44.738;20.394;2022-08-02T11:20:25;3.53;;;1.60;;
57409;SDS011;46044;44.738;20.394;2022-08-02T11:22:52;3.65;;;1.50;;
57409;SDS011;46044;44.738;20.394;2022-08-02T11:30:13;3.40;;;1.60;;
57409;SDS011;46044;44.738;20.394;2022-08-02T11:32:39;2.60;;;1.58;;
57409;SDS011;46044;44.738;20.394;2022-08-02T11:35:06;6.30;;;1.40;;
57409;SDS011;46044;44.738;20.394;2022-08-02T11:37:36;3.42;;;1.40;;
57409;SDS011;46044;44.738;20.394;2022-08-02T11:40:03;9.27;;;1.60;;
57409;SDS011;46044;44.738;20.394;2022-08-02T11:42:31;2.63;;;1.50;;
57409;SDS011;46044;44.738;20.394;2022-08-02T11:45:06;4.78;;;1.73;;
57409;SDS011;46044;44.738;20.394;2022-08-02T11:47:33;5.80;;;1.50;;
57409;SDS011;46044;44.738;20.394;2022-08-02T11:50:12;3.47;;;1.58;;
57409;SDS011;46044;44.738;20.394;2022-08-02T11:52:39;5.95;;;1.55;;
57409;SDS011;46044;44.738;20.394;2022-08-02T11:55:05;3.65;;;1.27;;
57409;SDS011;46044;44.738;20.394;2022-08-02T11:57:32;3.42;;;1.75;;
57409;SDS011;46044;44.738;20.394;2022-08-02T11:59:59;4.57;;;1.70;;
57409;SDS011;46044;44.738;20.394;2022-08-02T12:02:27;2.45;;;1.48;;
57409;SDS011;46044;44.738;20.394;2022-08-02T12:07:28;4.10;;;1.70;;
57409;SDS011;46044;44.738;20.394;2022-08-02T12:09:58;2.20;;;1.52;;
57409;SDS011;46044;44.738;20.394;2022-08-02T12:12:25;3.75;;;1.23;;
57409;SDS011;46044;44.738;20.394;2022-08-02T12:14:51;8.32;;;1.55;;
57409;SDS011;46044;44.738;20.394;2022-08-02T12:17:24;2.97;;;1.38;;
57409;SDS011;46044;44.738;20.394;2022-08-02T12:20:09;4.72;;;1.98;;
57409;SDS011;46044;44.738;20.394;2022-08-02T12:22:35;2.78;;;1.60;;
57409;SDS011;46044;44.738;20.394;2022-08-02T12:25:16;4.00;;;1.98;;
57409;SDS011;46044;44.738;20.394;2022-08-02T12:27:47;5.63;;;1.80;;
57409;SDS011;46044;44.738;20.394;2022-08-02T12:30:13;3.10;;;1.70;;
57409;SDS011;46044;44.738;20.394;2022-08-02T12:32:41;7.47;;;2.13;;
57409;SDS011;46044;44.738;20.394;2022-08-02T12:37:35;5.93;;;1.60;;
57409;SDS011;46044;44.738;20.394;2022-08-02T12:43:02;3.97;;;1.60;;
57409;SDS011;46044;44.738;20.394;2022-08-02T12:45:31;1.58;;;1.30;;
57409;SDS011;46044;44.738;20.394;2022-08-02T12:48:31;4.53;;;1.70;;
57409;SDS011;46044;44.738;20.394;2022-08-02T12:53:51;3.90;;;1.45;;
57409;SDS011;46044;44.738;20.394;2022-08-02T12:56:35;5.57;;;1.80;;
57409;SDS011;46044;44.738;20.394;2022-08-02T12:59:02;3.10;;;1.77;;
57409;SDS011;46044;44.738;20.394;2022-08-02T13:01:28;1.92;;;1.42;;
57409;SDS011;46044;44.738;20.394;2022-08-02T13:03:55;1.60;;;1.35;;
57409;SDS011;46044;44.738;20.394;2022-08-02T13:06:22;1.63;;;1.40;;
57409;SDS011;46044;44.738;20.394;2022-08-02T13:08:49;3.35;;;1.70;;
57409;SDS011;46044;44.738;20.394;2022-08-02T13:11:15;1.75;;;1.40;;
57409;SDS011;46044;44.738;20.394;2022-08-02T13:13:41;2.47;;;1.63;;
57409;SDS011;46044;44.738;20.394;2022-08-02T13:16:08;1.92;;;1.42;;
57409;SDS011;46044;44.738;20.394;2022-08-02T13:18:35;3.13;;;1.40;;
57409;SDS011;46044;44.738;20.394;2022-08-02T13:21:02;4.50;;;1.63;;
57409;SDS011;46044;44.738;20.394;2022-08-02T13:23:31;4.50;;;1.75;;
57409;SDS011;46044;44.738;20.394;2022-08-02T13:25:58;4.70;;;1.75;;
57409;SDS011;46044;44.738;20.394;2022-08-02T13:28:24;6.20;;;1.67;;
57409;SDS011;46044;44.738;20.394;2022-08-02T13:30:50;3.67;;;1.45;;
57409;SDS011;46044;44.738;20.394;2022-08-02T13:33:16;5.07;;;1.45;;
57409;SDS011;46044;44.738;20.394;2022-08-02T13:35:42;4.40;;;1.52;;
57409;SDS011;46044;44.738;20.394;2022-08-02T13:38:09;2.97;;;1.33;;
57409;SDS011;46044;44.738;20.394;2022-08-02T13:40:35;2.88;;;1.65;;
57409;SDS011;46044;44.738;20.394;2022-08-02T13:43:21;2.45;;;1.55;;
57409;SDS011;46044;44.738;20.394;2022-08-02T13:45:46;2.50;;;1.45;;
57409;SDS011;46044;44.738;20.394;2022-08-02T13:48:12;3.97;;;1.50;;
57409;SDS011;46044;44.738;20.394;2022-08-02T13:50:38;3.63;;;1.85;;
57409;SDS011;46044;44.738;20.394;2022-08-02T13:53:04;5.10;;;1.20;;
57409;SDS011;46044;44.738;20.394;2022-08-02T13:55:30;2.55;;;1.27;;
57409;SDS011;46044;44.738;20.394;2022-08-02T13:57:55;1.83;;;1.63;;
57409;SDS011;46044;44.738;20.394;2022-08-02T14:00:22;2.88;;;1.50;;
57409;SDS011;46044;44.738;20.394;2022-08-02T14:02:48;2.25;;;1.35;;
57409;SDS011;46044;44.738;20.394;2022-08-02T14:07:43;3.88;;;1.38;;
57409;SDS011;46044;44.738;20.394;2022-08-02T14:10:09;13.20;;;3.85;;
57409;SDS011;46044;44.738;20.394;2022-08-02T14:12:35;5.50;;;1.63;;
57409;SDS011;46044;44.738;20.394;2022-08-02T14:15:00;10.18;;;2.80;;
57409;SDS011;46044;44.738;20.394;2022-08-02T14:17:26;31.30;;;6.43;;
57409;SDS011;46044;44.738;20.394;2022-08-02T14:19:52;7.80;;;2.40;;
57409;SDS011;46044;44.738;20.394;2022-08-02T14:22:17;2.80;;;1.30;;
57409;SDS011;46044;44.738;20.394;2022-08-02T14:24:43;17.98;;;4.43;;
57409;SDS011;46044;44.738;20.394;2022-08-02T14:27:09;10.73;;;2.95;;
57409;SDS011;46044;44.738;20.394;2022-08-02T14:29:35;3.80;;;1.88;;
57409;SDS011;46044;44.738;20.394;2022-08-02T14:32:01;2.88;;;1.80;;
57409;SDS011;46044;44.738;20.394;2022-08-02T14:34:27;20.33;;;4.72;;
57409;SDS011;46044;44.738;20.394;2022-08-02T14:36:54;9.70;;;2.53;;
57409;SDS011;46044;44.738;20.394;2022-08-02T14:39:20;8.52;;;3.28;;
57409;SDS011;46044;44.738;20.394;2022-08-02T14:41:45;9.65;;;2.50;;
57409;SDS011;46044;44.738;20.394;2022-08-02T14:44:11;6.05;;;1.80;;
57409;SDS011;46044;44.738;20.394;2022-08-02T14:46:37;4.13;;;1.70;;
57409;SDS011;46044;44.738;20.394;2022-08-02T14:49:05;7.18;;;2.10;;
57409;SDS011;46044;44.738;20.394;2022-08-02T14:51:33;4.75;;;2.38;;
57409;SDS011;46044;44.738;20.394;2022-08-02T14:53:59;3.85;;;1.80;;
57409;SDS011;46044;44.738;20.394;2022-08-02T14:56:26;3.75;;;1.58;;
57409;SDS011;46044;44.738;20.394;2022-08-02T14:58:52;6.28;;;1.73;;
57409;SDS011;46044;44.738;20.394;2022-08-02T15:01:17;1.80;;;1.45;;
57409;SDS011;46044;44.738;20.394;2022-08-02T15:03:43;2.42;;;1.33;;
57409;SDS011;46044;44.738;20.394;2022-08-02T15:06:09;5.10;;;1.50;;
57409;SDS011;46044;44.738;20.394;2022-08-02T15:08:35;3.90;;;1.90;;
57409;SDS011;46044;44.738;20.394;2022-08-02T15:11:00;4.35;;;2.10;;
57409;SDS011;46044;44.738;20.394;2022-08-02T15:13:26;8.88;;;2.88;;
57409;SDS011;46044;44.738;20.394;2022-08-02T15:15:52;4.47;;;1.98;;
57409;SDS011;46044;44.738;20.394;2022-08-02T15:18:17;4.07;;;1.50;;
57409;SDS011;46044;44.738;20.394;2022-08-02T15:20:43;10.57;;;2.00;;
57409;SDS011;46044;44.738;20.394;2022-08-02T15:23:11;7.53;;;2.25;;
57409;SDS011;46044;44.738;20.394;2022-08-02T15:25:40;6.22;;;1.58;;
57409;SDS011;46044;44.738;20.394;2022-08-02T15:28:06;4.63;;;1.67;;
57409;SDS011;46044;44.738;20.394;2022-08-02T15:30:32;4.90;;;1.73;;
57409;SDS011;46044;44.738;20.394;2022-08-02T15:32:59;3.45;;;1.58;;
57409;SDS011;46044;44.738;20.394;2022-08-02T15:35:24;4.47;;;1.63;;
57409;SDS011;46044;44.738;20.394;2022-08-02T15:37:50;4.38;;;1.75;;
57409;SDS011;46044;44.738;20.394;2022-08-02T15:40:16;7.10;;;1.48;;
57409;SDS011;46044;44.738;20.394;2022-08-02T15:42:42;8.88;;;1.73;;
57409;SDS011;46044;44.738;20.394;2022-08-02T15:45:08;9.30;;;2.10;;
57409;SDS011;46044;44.738;20.394;2022-08-02T15:47:34;3.05;;;1.70;;